METAR Data
IDs: Format: Raw Decoded Include TAF

Data at: 0233 UTC 24 Sep 2018

KDKB 240215Z AUTO 08007KT 10SM CLR 14/12 A3012 RMK AO2 T01400118
KDKB 240155Z AUTO 08008KT 10SM CLR 14/12 A3012 RMK AO2 T01430117
KDKB 240135Z AUTO 07007KT 10SM CLR 14/12 A3012 RMK AO2 T01410115
KDKB 240115Z AUTO 07008KT 10SM CLR 15/12 A3012 RMK AO2 T01480115
KDKB 240055Z AUTO 07008KT 10SM CLR 16/11 A3012 RMK AO2 T01550113
KDKB 240035Z AUTO 07006KT 10SM CLR 16/11 A3012 RMK AO2 T01560109
KDKB 240015Z AUTO 08007KT 10SM CLR 17/11 A3011 RMK AO2 T01670107
KDKB 232355Z AUTO 08007KT 10SM CLR 17/11 A3011 RMK AO2 T01730110 10231 20173
KDKB 232335Z AUTO 09007KT 10SM CLR 19/11 A3011 RMK AO2 T01880110
KDKB 232315Z AUTO 09009KT 10SM CLR 20/11 A3010 RMK AO2 T02010106
KDKB 232255Z AUTO 09006KT 10SM CLR 21/10 A3010 RMK AO2 T02100102
KDKB 232235Z AUTO 09007KT 10SM CLR 22/10 A3009 RMK AO2 T02170104
KDKB 232215Z AUTO 11007KT 10SM CLR 22/10 A3009 RMK AO2 T02220102
KDKB 232155Z AUTO 09006KT 10SM CLR 23/10 A3009 RMK AO2 T02250100
KDKB 232135Z AUTO 12006KT 10SM CLR 23/10 A3009 RMK AO2 T02260096
KDKB 232115Z AUTO 12007KT 10SM CLR 23/10 A3010 RMK AO2 T02290100
KDKB 232055Z AUTO 08007KT 10SM CLR 23/10 A3010 RMK AO2 T02280098
KDKB 232035Z AUTO 10007KT 10SM CLR 23/09 A3010 RMK AO2 T02290094
KDKB 232015Z AUTO 12004KT 10SM CLR 23/10 A3010 RMK AO2 T02300095
KDKB 231955Z AUTO 10004KT 10SM CLR 23/10 A3011 RMK AO2 T02300095
KDKB 231935Z AUTO 12007KT 10SM CLR 23/10 A3012 RMK AO2 T02260098
KDKB 231915Z AUTO 14007KT 10SM CLR 22/09 A3012 RMK AO2 T02230092
KDKB 231855Z AUTO 13007KT 10SM CLR 22/09 A3013 RMK AO2 T02210094
KDKB 231835Z AUTO 14005KT 10SM CLR 22/09 A3014 RMK AO2 T02180090
KDKB 231815Z AUTO 10006KT 10SM CLR 22/10 A3016 RMK AO2 T02170096
KDKB 231755Z AUTO 13004KT 10SM CLR 21/10 A3016 RMK AO2 T02100097 10211 20077
KDKB 231735Z AUTO 11009KT 10SM CLR 21/09 A3017 RMK AO2 T02090093
KDKB 231715Z AUTO 10007KT 10SM CLR 20/10 A3018 RMK AO2 T02040097
KDKB 231655Z AUTO 12005KT 10SM CLR 20/10 A3019 RMK AO2 T01970095
KDKB 231635Z AUTO 11004KT 10SM CLR 19/10 A3020 RMK AO2 T01890099
KDKB 231615Z AUTO 11008KT 10SM CLR 19/10 A3021 RMK AO2 T01870102
KDKB 231555Z AUTO 09006KT 10SM CLR 18/10 A3021 RMK AO2 T01790103
KDKB 231535Z AUTO 00000KT 10SM CLR 18/11 A3021 RMK AO2 T01750109
KDKB 231515Z AUTO 16004KT 10SM CLR 17/11 A3021 RMK AO2 T01710112
KDKB 231455Z AUTO 12004KT 10SM CLR 16/11 A3021 RMK AO2 T01610109
KDKB 231435Z AUTO 09003KT 10SM CLR 16/11 A3021 RMK AO2 T01550112
KDKB 231415Z AUTO 10003KT 10SM CLR 15/11 A3021 RMK AO2 T01480112
KDKB 231355Z AUTO 00000KT 10SM CLR 14/11 A3021 RMK AO2 T01380108
KDKB 231335Z AUTO 00000KT 10SM CLR 13/11 A3021 RMK AO2 T01300105
KDKB 231315Z AUTO 00000KT 10SM CLR 12/10 A3020 RMK AO2 T01160102
KDKB 231255Z AUTO 00000KT 10SM CLR 10/09 A3020 RMK AO2 T01000093
KDKB 231235Z AUTO 00000KT 7SM CLR 09/09 A3019 RMK AO2 T00900086
KDKB 231215Z AUTO 00000KT 7SM CLR 08/08 A3019 RMK AO2 T00800079
KDKB 231155Z AUTO 12003KT 5SM BR CLR 08/07 A3018 RMK AO2 T00760074 10091 20075
KDKB 231135Z AUTO 11004KT 10SM CLR 08/08 A3018 RMK AO2 T00810077
KDKB 231115Z AUTO 12003KT 10SM CLR 08/07 A3018 RMK AO2 T00770074
KDKB 231055Z AUTO 14004KT 10SM CLR 08/07 A3018 RMK AO2 T00790072
KDKB 231035Z AUTO 00000KT 10SM CLR 08/08 A3018 RMK AO2 T00800075
KDKB 231015Z AUTO 00000KT 10SM CLR 09/08 A3018 RMK AO2 T00850080
KDKB 230955Z AUTO 12003KT 10SM CLR 08/08 A3018 RMK AO2 T00800075
KDKB 230935Z AUTO 12003KT 10SM CLR 09/08 A3018 RMK AO2 T00850077
KDKB 230915Z AUTO 12003KT 10SM CLR 09/08 A3018 RMK AO2 T00910082
KDKB 230850Z AUTO 13003KT 10SM CLR 09/08 A3018 RMK AO2 T00880080
KDKB 230835Z AUTO 13005KT 10SM CLR 09/08 A3018 RMK AO2 T00860080
KDKB 230815Z AUTO 12004KT 10SM CLR 09/08 A3019 RMK AO2 T00870080
KDKB 230755Z AUTO 11003KT 10SM CLR 08/08 A3019 RMK AO2 T00840078
KDKB 230735Z AUTO 11003KT 10SM CLR 08/08 A3019 RMK AO2 T00820076
KDKB 230715Z AUTO 10004KT 10SM CLR 08/07 A3019 RMK AO2 T00810073
KDKB 230655Z AUTO 09003KT 10SM CLR 08/07 A3019 RMK AO2 T00800074
KDKB 230635Z AUTO 00000KT 10SM CLR 08/07 A3019 RMK AO2 T00820073
KDKB 230615Z AUTO 09003KT 10SM CLR 09/08 A3018 RMK AO2 T00870075
KDKB 230555Z AUTO 00000KT 10SM CLR 09/08 A3019 RMK AO2 T00910076 10134 20087 401900068
KDKB 230535Z AUTO 11004KT 10SM CLR 09/07 A3019 RMK AO2 T00880074
KDKB 230515Z AUTO 11004KT 10SM CLR 09/08 A3019 RMK AO2 T00910075
KDKB 230455Z AUTO 11003KT 10SM CLR 10/08 A3020 RMK AO2 T00950075
KDKB 230435Z AUTO 11003KT 10SM CLR 09/07 A3020 RMK AO2 T00900072
KDKB 230415Z AUTO 11004KT 10SM CLR 09/07 A3020 RMK AO2 T00900068
KDKB 230355Z AUTO 09004KT 10SM CLR 09/07 A3021 RMK AO2 T00920070
KDKB 230335Z AUTO 09004KT 10SM CLR 09/07 A3021 RMK AO2 T00920067
KDKB 230315Z AUTO 08004KT 10SM CLR 09/07 A3021 RMK AO2 T00940066
KDKB 230255Z AUTO 10006KT 10SM CLR 09/07 A3021 RMK AO2 T00930065
KDKB 230235Z AUTO 10006KT 10SM CLR 10/06 A3021 RMK AO2 T00950064
KDKB 230215Z AUTO 10006KT 10SM CLR 10/06 A3021 RMK AO2 T00950062
KDKB 230155Z AUTO 09005KT 10SM CLR 10/06 A3021 RMK AO2 T01020061
KDKB 230135Z AUTO 09006KT 10SM CLR 11/06 A3021 RMK AO2 T01050060
KDKB 230115Z AUTO 07005KT 10SM CLR 11/06 A3021 RMK AO2 T01100058
KDKB 230055Z AUTO 08005KT 10SM CLR 11/06 A3021 RMK AO2 T01120058
KDKB 230035Z AUTO 09006KT 10SM CLR 12/06 A3020 RMK AO2 T01230056
KDKB 230015Z AUTO 08006KT 10SM CLR 13/06 A3020 RMK AO2 T01250055
KDKB 222355Z AUTO 08006KT 10SM CLR 14/05 A3021 RMK AO2 T01350053 10190 20135
KDKB 222335Z AUTO 08005KT 10SM CLR 15/05 A3021 RMK AO2 T01490053
KDKB 222315Z AUTO 08006KT 10SM CLR 16/05 A3021 RMK AO2 T01590050
KDKB 222255Z AUTO 10008KT 10SM CLR 17/05 A3021 RMK AO2 T01660050
KDKB 222235Z AUTO 08007KT 10SM CLR 17/05 A3022 RMK AO2 T01710049
KDKB 222215Z AUTO 09006KT 10SM CLR 18/05 A3022 RMK AO2 T01750049
KDKB 222155Z AUTO 07007KT 10SM CLR 18/05 A3022 RMK AO2 T01790050
KDKB 222135Z AUTO 07007KT 10SM CLR 18/05 A3022 RMK AO2 T01820048
KDKB 222115Z AUTO 07007KT 10SM CLR 18/05 A3023 RMK AO2 T01840054
KDKB 222055Z AUTO 08007KT 10SM CLR 19/05 A3023 RMK AO2 T01860052
KDKB 222035Z AUTO 06006KT 10SM CLR 19/05 A3024 RMK AO2 T01870050
KDKB 222015Z AUTO 09008KT 10SM CLR 19/05 A3024 RMK AO2 T01860046
KDKB 221955Z AUTO 10008KT 10SM CLR 19/05 A3024 RMK AO2 T01850048
KDKB 221930Z AUTO 06005KT 10SM CLR 19/05 A3026 RMK AO2 T01850050
KDKB 221915Z AUTO 09006KT 10SM CLR 19/05 A3026 RMK AO2 T01860052
KDKB 221855Z AUTO 09004KT 10SM CLR 18/06 A3027 RMK AO2 T01820056
KDKB 221835Z AUTO 08006KT 10SM CLR 18/06 A3028 RMK AO2 T01830062
KDKB 221815Z AUTO 08007KT 10SM CLR 18/06 A3029 RMK AO2 T01780058
KDKB 221755Z AUTO 09004G08KT 10SM CLR 18/07 A3029 RMK AO2 T01790067 10180 20070
KDKB 221735Z AUTO 08005KT 10SM CLR 18/07 A3030 RMK AO2 T01800070
KDKB 221715Z AUTO 08009KT 10SM CLR 18/07 A3031 RMK AO2 T01750068
KDKB 221655Z AUTO 07005G16KT 10SM CLR 17/07 A3032 RMK AO2 T01730070
KDKB 221635Z AUTO 07013KT 10SM CLR 17/07 A3032 RMK AO2 T01710071
KDKB 221615Z AUTO 10009G16KT 10SM CLR 17/07 A3032 RMK AO2 T01730068
KDKB 221555Z AUTO 10011G17KT 10SM CLR 17/06 A3034 RMK AO2 T01660063
KDKB 221535Z AUTO 08011G16KT 10SM CLR 16/07 A3034 RMK AO2 T01600074
KDKB 221515Z AUTO 09015G18KT 10SM CLR 16/07 A3034 RMK AO2 T01560072
KDKB 221455Z AUTO 08013KT 10SM CLR 15/08 A3034 RMK AO2 T01520077
KDKB 221435Z AUTO 07010KT 10SM CLR 14/08 A3034 RMK AO2 T01440084